Woodlawn, Illinois
Current Conditions -  °F | °C
As of 11:55 AM on Tuesday 21 Oct 2014 (Local Time) from KMVN Reporting Station
Clear Clear  
Wind Chill: 63°   Ceiling: Unl
Heat Index: 63°   Visibility: 10mi
Dew Point: 46°   Wind: 6mph
Humidity: 55%   Direction: 360°N
Pressure: 30.13"   Gusts: NA
Location:  38.33°N, 89.03°W
Report Text: KMVN 211655Z AUTO 36005KT 10SM CLR 17/08 A3013 RMK AO1
Loading
Personal Weather Stations






























Interactive Weather Map
Tropical Storm Tracking
New forecast layout! Learn more

10-Day Weather Forecast

Advertisements
Track Severe Weather on mobile